createdAt,value
2023-02-04T00:00:41.964Z,2.10
2023-02-04T00:03:10.426Z,2.38
2023-02-04T00:05:38.861Z,2.30
2023-02-04T00:08:07.518Z,1.80
2023-02-04T00:10:38.029Z,1.75
2023-02-04T00:13:06.425Z,2.40
2023-02-04T00:15:34.815Z,1.40
2023-02-04T00:18:05.720Z,1.98
2023-02-04T00:20:34.290Z,1.80
2023-02-04T00:23:03.519Z,1.92
2023-02-04T00:25:31.857Z,1.88
2023-02-04T00:28:02.757Z,2.05
2023-02-04T00:30:31.396Z,2.42
2023-02-04T00:33:00.051Z,2.35
2023-02-04T00:35:28.575Z,2.05
2023-02-04T00:37:57.619Z,2.17
2023-02-04T00:40:26.047Z,2.05
2023-02-04T00:42:54.455Z,1.63
2023-02-04T00:45:24.349Z,2.53
2023-02-04T00:47:52.685Z,1.95
2023-02-04T00:50:21.327Z,1.90
2023-02-04T00:52:49.800Z,2.13
2023-02-04T00:55:18.327Z,1.95
2023-02-04T00:57:48.127Z,2.28
2023-02-04T01:00:19.286Z,2.47
2023-02-04T01:02:49.092Z,2.10
2023-02-04T01:05:17.723Z,3.05
2023-02-04T01:07:46.136Z,2.85
2023-02-04T01:10:16.221Z,3.00
2023-02-04T01:12:45.197Z,3.88
2023-02-04T01:15:13.872Z,4.05
2023-02-04T01:17:42.836Z,3.30
2023-02-04T01:20:13.646Z,4.22
2023-02-04T01:22:42.100Z,4.25
2023-02-04T01:25:11.561Z,4.00
2023-02-04T01:27:39.902Z,4.00
2023-02-04T01:30:09.961Z,5.32
2023-02-04T01:32:38.423Z,4.32
2023-02-04T01:35:07.222Z,5.00
2023-02-04T01:37:36.986Z,5.00
2023-02-04T01:40:06.030Z,5.18
2023-02-04T01:42:34.483Z,5.05
2023-02-04T01:45:03.025Z,4.35
2023-02-04T01:47:31.411Z,4.95
2023-02-04T01:50:00.019Z,5.43
2023-02-04T01:52:39.819Z,7.10
2023-02-04T01:55:16.715Z,6.60
2023-02-04T01:57:45.704Z,5.82
2023-02-04T02:00:18.593Z,6.13
2023-02-04T02:02:50.515Z,6.47
2023-02-04T02:05:22.457Z,5.75
2023-02-04T02:07:54.319Z,6.65
2023-02-04T02:10:23.181Z,7.40
2023-02-04T02:12:51.734Z,7.57
2023-02-04T02:15:20.363Z,7.63
2023-02-04T02:17:49.024Z,7.63
2023-02-04T02:20:19.627Z,8.45
2023-02-04T02:23:01.299Z,8.27
2023-02-04T02:25:31.084Z,7.93
2023-02-04T02:28:01.943Z,10.35
2023-02-04T02:30:31.119Z,10.35
2023-02-04T02:33:00.320Z,10.68
2023-02-04T02:35:29.542Z,11.43
2023-02-04T02:37:58.642Z,9.98
2023-02-04T02:40:27.144Z,10.77
2023-02-04T02:42:57.148Z,10.68
2023-02-04T02:45:27.600Z,11.48
2023-02-04T02:47:58.570Z,11.10
2023-02-04T02:50:29.769Z,10.95
2023-02-04T02:52:59.011Z,12.63
2023-02-04T02:55:29.104Z,11.85
2023-02-04T02:57:59.525Z,12.40
2023-02-04T03:00:29.964Z,13.05
2023-02-04T03:03:02.878Z,13.98
2023-02-04T03:05:33.818Z,14.48
2023-02-04T03:08:03.038Z,14.63
2023-02-04T03:10:31.680Z,14.65
2023-02-04T03:13:02.924Z,14.70
2023-02-04T03:15:32.155Z,14.52
2023-02-04T03:18:02.165Z,14.90
2023-02-04T03:20:32.294Z,15.43
2023-02-04T03:23:01.036Z,14.75
2023-02-04T03:25:29.795Z,15.15
2023-02-04T03:27:59.870Z,14.38
2023-02-04T03:30:30.948Z,14.45
2023-02-04T03:32:59.460Z,14.85
2023-02-04T03:35:28.353Z,14.82
2023-02-04T03:37:56.781Z,15.75
2023-02-04T03:40:25.492Z,15.95
2023-02-04T03:42:53.920Z,15.50
2023-02-04T03:45:22.315Z,16.88
2023-02-04T03:47:52.146Z,16.13
2023-02-04T03:50:20.571Z,16.25
2023-02-04T03:52:51.518Z,16.67
2023-02-04T03:55:19.945Z,15.27
2023-02-04T03:57:48.405Z,16.48
2023-02-04T04:00:17.037Z,15.80
2023-02-04T04:02:45.593Z,16.75
2023-02-04T04:05:15.435Z,16.15
2023-02-04T04:07:45.163Z,17.48
2023-02-04T04:10:13.529Z,15.38
2023-02-04T04:12:41.970Z,16.40
2023-02-04T04:15:11.076Z,15.52
2023-02-04T04:17:39.524Z,16.45
2023-02-04T04:20:08.464Z,14.40
2023-02-04T04:22:38.181Z,16.17
2023-02-04T04:25:07.775Z,15.77
2023-02-04T04:27:36.240Z,16.75
2023-02-04T04:30:05.063Z,16.05
2023-02-04T04:32:33.494Z,15.32
2023-02-04T04:35:01.863Z,16.48
2023-02-04T04:37:31.058Z,16.20
2023-02-04T04:40:02.691Z,15.20
2023-02-04T04:42:31.019Z,15.80
2023-02-04T04:44:59.713Z,15.55
2023-02-04T04:47:28.920Z,15.02
2023-02-04T04:49:57.369Z,16.08
2023-02-04T04:52:25.718Z,14.07
2023-02-04T04:54:54.140Z,13.70
2023-02-04T04:57:24.056Z,14.40
2023-02-04T04:59:52.421Z,13.77
2023-02-04T05:02:20.790Z,12.80
2023-02-04T05:04:49.226Z,15.20
2023-02-04T05:07:17.590Z,14.48
2023-02-04T05:09:45.972Z,14.65
2023-02-04T05:12:14.307Z,14.65
2023-02-04T05:14:44.135Z,14.18
2023-02-04T05:17:12.657Z,15.50
2023-02-04T05:19:41.093Z,16.40
2023-02-04T05:22:09.502Z,15.65
2023-02-04T05:24:37.848Z,15.23
2023-02-04T05:27:06.313Z,16.38
2023-02-04T05:29:34.649Z,16.05
2023-02-04T05:32:04.688Z,15.88
2023-02-04T05:34:33.477Z,18.15
2023-02-04T05:37:02.597Z,16.65
2023-02-04T05:39:30.978Z,17.25
2023-02-04T05:41:59.323Z,17.85
2023-02-04T05:44:27.677Z,17.30
2023-02-04T05:46:56.084Z,18.92
2023-02-04T05:49:26.031Z,16.80
2023-02-04T05:51:54.350Z,17.30
2023-02-04T05:54:22.771Z,19.13
2023-02-04T05:56:51.851Z,18.40
2023-02-04T05:59:20.268Z,17.92
2023-02-04T06:01:48.675Z,17.33
2023-02-04T06:04:17.987Z,16.30
2023-02-04T06:06:47.978Z,16.13
2023-02-04T06:09:16.292Z,17.02
2023-02-04T06:11:44.635Z,16.58
2023-02-04T06:14:13.033Z,18.13
2023-02-04T06:16:42.450Z,16.17
2023-02-04T06:19:10.837Z,16.38
2023-02-04T06:21:39.273Z,15.38
2023-02-04T06:24:09.433Z,15.30
2023-02-04T06:26:37.911Z,15.80
2023-02-04T06:29:06.396Z,16.00
2023-02-04T06:31:34.920Z,15.77
2023-02-04T06:34:03.390Z,15.02
2023-02-04T06:36:31.805Z,16.92
2023-02-04T06:39:00.977Z,17.58
2023-02-04T06:41:30.890Z,17.08
2023-02-04T06:43:59.627Z,17.75
2023-02-04T06:46:28.114Z,18.10
2023-02-04T06:48:56.833Z,19.13
2023-02-04T06:51:25.245Z,18.10
2023-02-04T06:53:53.646Z,19.67
2023-02-04T06:56:22.040Z,20.38
2023-02-04T06:58:51.862Z,19.55
2023-02-04T07:01:20.748Z,20.25
2023-02-04T07:03:49.123Z,21.35
2023-02-04T07:06:17.454Z,19.08
2023-02-04T07:08:47.596Z,19.15
2023-02-04T07:11:16.247Z,20.10
2023-02-04T07:13:44.578Z,18.98
2023-02-04T07:16:14.429Z,19.83
2023-02-04T07:18:42.934Z,18.30
2023-02-04T07:21:11.619Z,18.63
2023-02-04T07:23:39.925Z,19.67
2023-02-04T07:26:08.414Z,20.45
2023-02-04T07:28:37.711Z,18.45
2023-02-04T07:31:06.308Z,19.05
2023-02-04T07:33:36.265Z,20.08
2023-02-04T07:36:05.501Z,19.92
2023-02-04T07:38:34.012Z,18.77
2023-02-04T07:41:03.065Z,19.90
2023-02-04T07:43:31.666Z,18.88
2023-02-04T07:46:00.109Z,19.13
2023-02-04T07:48:29.254Z,19.65
2023-02-04T07:50:59.065Z,19.65
2023-02-04T07:53:27.519Z,20.20
2023-02-04T07:55:56.008Z,21.08
2023-02-04T07:58:24.446Z,20.33
2023-02-04T08:00:52.812Z,20.42
2023-02-04T08:03:21.222Z,23.08
2023-02-04T08:05:49.699Z,19.52
2023-02-04T08:08:19.469Z,21.48
2023-02-04T08:10:47.872Z,19.70
2023-02-04T08:13:16.441Z,19.00
2023-02-04T08:15:44.857Z,18.77
2023-02-04T08:18:13.666Z,16.70
2023-02-04T08:20:42.143Z,18.95
2023-02-04T08:23:10.681Z,21.70
2023-02-04T08:25:40.831Z,16.10
2023-02-04T08:28:09.230Z,15.80
2023-02-04T08:30:37.613Z,15.35
2023-02-04T08:33:06.220Z,16.33
2023-02-04T08:35:34.587Z,15.63
2023-02-04T08:38:03.018Z,15.63
2023-02-04T08:40:31.496Z,14.60
2023-02-04T08:43:02.674Z,15.52
2023-02-04T08:45:31.074Z,14.68
2023-02-04T08:47:59.612Z,15.23
2023-02-04T08:50:31.138Z,14.15
2023-02-04T08:52:59.637Z,13.43
2023-02-04T08:55:28.883Z,14.57
2023-02-04T08:57:59.100Z,14.23
2023-02-04T09:00:29.085Z,15.15
2023-02-04T09:02:57.509Z,14.48
2023-02-04T09:05:25.953Z,12.43
2023-02-04T09:07:54.364Z,13.02
2023-02-04T09:10:22.710Z,12.27
2023-02-04T09:12:55.945Z,11.45
2023-02-04T09:15:25.426Z,12.35
2023-02-04T09:18:02.600Z,12.82
2023-02-04T09:20:31.287Z,11.52
2023-02-04T09:22:59.846Z,11.75
2023-02-04T09:25:29.223Z,11.70
2023-02-04T09:27:57.587Z,11.38
2023-02-04T09:30:26.082Z,11.18
2023-02-04T09:32:55.869Z,10.10
2023-02-04T09:35:24.306Z,10.75
2023-02-04T09:37:52.684Z,10.80
2023-02-04T09:40:21.838Z,10.50
2023-02-04T09:42:51.421Z,10.07
2023-02-04T09:45:24.228Z,8.70
2023-02-04T09:47:53.253Z,9.68
2023-02-04T09:50:26.180Z,8.32
2023-02-04T09:52:58.540Z,7.82
2023-02-04T09:55:31.554Z,9.77
2023-02-04T09:58:00.894Z,9.13
2023-02-04T10:00:32.056Z,9.43
2023-02-04T10:03:04.572Z,8.65
2023-02-04T10:05:37.291Z,9.20
2023-02-04T10:08:07.004Z,9.02
2023-02-04T10:10:35.516Z,9.25
2023-02-04T10:13:05.563Z,8.60
2023-02-04T10:15:34.713Z,8.75
2023-02-04T10:18:08.754Z,8.38
2023-02-04T10:20:38.921Z,8.45
2023-02-04T10:23:12.693Z,8.68
2023-02-04T10:25:41.191Z,9.18
2023-02-04T10:28:09.671Z,9.82
2023-02-04T10:30:43.713Z,8.85
2023-02-04T10:33:16.986Z,9.45
2023-02-04T10:35:49.133Z,8.35
2023-02-04T10:38:17.567Z,8.43
2023-02-04T10:40:47.299Z,7.38
2023-02-04T10:43:18.792Z,7.60
2023-02-04T10:45:48.541Z,7.22
2023-02-04T10:48:18.071Z,6.80
2023-02-04T10:50:49.222Z,7.55
2023-02-04T10:53:39.164Z,7.80
2023-02-04T10:56:15.845Z,6.75
2023-02-04T10:58:44.345Z,6.43
2023-02-04T11:01:13.699Z,6.28
2023-02-04T11:03:43.287Z,6.53
2023-02-04T11:06:15.268Z,5.95
2023-02-04T11:08:44.196Z,5.82
2023-02-04T11:11:18.562Z,6.00
2023-02-04T11:13:58.774Z,5.82
2023-02-04T11:16:28.663Z,4.97
2023-02-04T11:18:58.559Z,5.68
2023-02-04T11:21:42.141Z,6.15
2023-02-04T11:24:25.146Z,5.35
2023-02-04T11:27:06.864Z,5.82
2023-02-04T11:29:38.426Z,4.88
2023-02-04T11:32:27.242Z,4.95
2023-02-04T11:34:57.425Z,4.78
2023-02-04T11:37:41.224Z,4.75
2023-02-04T11:40:39.738Z,4.45
2023-02-04T11:43:14.348Z,4.70
2023-02-04T11:45:43.241Z,4.22
2023-02-04T11:48:15.594Z,4.75
2023-02-04T11:50:45.220Z,5.05
2023-02-04T11:53:15.073Z,4.80
2023-02-04T11:55:47.972Z,5.35
2023-02-04T11:58:18.645Z,5.25
2023-02-04T12:00:47.368Z,4.70
2023-02-04T12:03:25.472Z,6.07
2023-02-04T12:05:56.127Z,6.32
2023-02-04T12:08:33.519Z,5.75
2023-02-04T12:11:09.439Z,5.82
2023-02-04T12:13:52.267Z,4.70
2023-02-04T12:16:21.155Z,4.18
2023-02-04T12:18:50.134Z,4.45
2023-02-04T12:21:19.967Z,4.97
2023-02-04T12:23:50.970Z,3.90
2023-02-04T12:26:19.397Z,3.67
2023-02-04T12:28:47.787Z,4.60
2023-02-04T12:31:16.432Z,4.93
2023-02-04T12:33:44.811Z,3.80
2023-02-04T12:36:13.215Z,4.15
2023-02-04T12:38:42.049Z,4.20
2023-02-04T12:41:11.923Z,4.03
2023-02-04T12:43:40.361Z,4.32
2023-02-04T12:46:08.702Z,5.13
2023-02-04T12:48:41.033Z,4.63
2023-02-04T12:51:09.504Z,4.47
2023-02-04T12:53:37.908Z,4.43
2023-02-04T12:56:07.756Z,4.82
2023-02-04T12:58:37.484Z,5.85
2023-02-04T13:01:06.292Z,5.10
2023-02-04T13:03:34.841Z,3.80
2023-02-04T13:06:03.439Z,5.50
2023-02-04T13:08:31.932Z,5.80
2023-02-04T13:11:00.240Z,4.25
2023-02-04T13:13:29.354Z,5.07
2023-02-04T13:15:59.278Z,5.55
2023-02-04T13:18:28.703Z,4.88
2023-02-04T13:20:57.035Z,4.43
2023-02-04T13:23:25.473Z,5.32
2023-02-04T13:25:53.839Z,4.68
2023-02-04T13:28:22.160Z,6.15
2023-02-04T13:30:50.548Z,5.88
2023-02-04T13:33:20.340Z,4.78
2023-02-04T13:35:48.719Z,4.55
2023-02-04T13:38:17.094Z,4.20
2023-02-04T13:40:45.484Z,4.88
2023-02-04T13:43:13.887Z,4.60
2023-02-04T13:45:47.683Z,4.90
2023-02-04T13:48:16.822Z,5.43
2023-02-04T13:50:46.690Z,4.68
2023-02-04T13:53:15.075Z,4.55
2023-02-04T13:55:43.535Z,4.22
2023-02-04T13:58:13.131Z,4.10
2023-02-04T14:00:41.525Z,3.67
2023-02-04T14:03:09.989Z,3.63
2023-02-04T14:05:38.361Z,3.72
2023-02-04T14:08:08.162Z,3.50
2023-02-04T14:10:38.629Z,4.00
2023-02-04T14:13:08.248Z,3.80
2023-02-04T14:15:37.792Z,3.75
2023-02-04T14:18:06.391Z,4.45
2023-02-04T14:20:35.925Z,4.40
2023-02-04T14:23:05.276Z,3.80
2023-02-04T14:25:35.255Z,4.75
2023-02-04T14:28:04.165Z,3.45
2023-02-04T14:30:33.783Z,3.80
2023-02-04T14:33:03.203Z,3.13
2023-02-04T14:35:31.882Z,3.65
2023-02-04T14:38:00.722Z,3.88
2023-02-04T14:40:29.081Z,4.38
2023-02-04T14:42:58.858Z,3.20
2023-02-04T14:45:27.212Z,3.20
2023-02-04T14:47:57.077Z,3.20
2023-02-04T14:50:27.403Z,3.47
2023-02-04T14:52:56.976Z,3.10
2023-02-04T14:55:25.380Z,2.88
2023-02-04T14:57:54.072Z,3.55
2023-02-04T15:00:24.262Z,3.70
2023-02-04T15:02:52.836Z,3.20
2023-02-04T15:05:21.231Z,3.33
2023-02-04T15:07:49.598Z,3.65
2023-02-04T15:10:18.126Z,4.10
2023-02-04T15:12:46.772Z,4.05
2023-02-04T15:15:15.158Z,3.33
2023-02-04T15:17:44.911Z,3.38
2023-02-04T15:20:13.985Z,3.85
2023-02-04T15:22:42.321Z,3.47
2023-02-04T15:25:11.784Z,3.70
2023-02-04T15:27:40.513Z,4.05
2023-02-04T15:30:10.141Z,4.00
2023-02-04T15:32:38.513Z,3.70
2023-02-04T15:35:09.061Z,3.95
2023-02-04T15:37:37.462Z,3.63
2023-02-04T15:40:06.704Z,3.92
2023-02-04T15:42:35.776Z,3.60
2023-02-04T15:45:04.592Z,3.58
2023-02-04T15:47:33.012Z,3.85
2023-02-04T15:50:01.406Z,3.60
2023-02-04T15:52:31.287Z,3.70
2023-02-04T15:54:59.726Z,4.03
2023-02-04T15:57:29.142Z,3.85
2023-02-04T15:59:57.995Z,3.88
2023-02-04T16:02:26.484Z,2.97
2023-02-04T16:04:55.296Z,3.42
2023-02-04T16:07:23.726Z,3.10
2023-02-04T16:09:53.608Z,3.35
2023-02-04T16:12:21.927Z,3.15
2023-02-04T16:14:50.367Z,3.00
2023-02-04T16:17:19.181Z,3.60
2023-02-04T16:19:47.805Z,3.38
2023-02-04T16:22:16.270Z,3.67
2023-02-04T16:24:44.755Z,3.30
2023-02-04T16:27:14.597Z,3.00
2023-02-04T16:29:43.008Z,3.35
2023-02-04T16:32:11.475Z,3.60
2023-02-04T16:34:39.960Z,3.83
2023-02-04T16:37:08.612Z,3.78
2023-02-04T16:39:39.036Z,4.53
2023-02-04T16:42:09.007Z,4.15
2023-02-04T16:44:39.866Z,4.00
2023-02-04T16:47:08.901Z,4.57
2023-02-04T16:49:37.829Z,5.18
2023-02-04T16:52:06.818Z,4.10
2023-02-04T16:54:35.551Z,4.45
2023-02-04T16:57:04.249Z,4.10
2023-02-04T16:59:35.303Z,3.85
2023-02-04T17:02:05.358Z,4.47
2023-02-04T17:04:34.723Z,3.47
2023-02-04T17:07:03.621Z,3.85
2023-02-04T17:09:32.006Z,3.58
2023-02-04T17:12:00.849Z,3.75
2023-02-04T17:14:29.776Z,4.30
2023-02-04T17:16:58.103Z,3.80
2023-02-04T17:19:28.049Z,4.10
2023-02-04T17:21:56.460Z,4.18
2023-02-04T17:24:24.774Z,4.15
2023-02-04T17:26:53.185Z,5.80
2023-02-04T17:29:22.259Z,5.63
2023-02-04T17:31:52.715Z,3.33
2023-02-04T17:34:21.495Z,4.70
2023-02-04T17:36:51.283Z,4.50
2023-02-04T17:39:19.634Z,4.63
2023-02-04T17:41:47.959Z,3.85
2023-02-04T17:44:20.137Z,4.25
2023-02-04T17:46:48.986Z,4.00
2023-02-04T17:49:17.342Z,4.93
2023-02-04T17:51:45.659Z,4.38
2023-02-04T17:54:15.879Z,4.32
2023-02-04T17:56:44.282Z,4.65
2023-02-04T17:59:12.645Z,4.45
2023-02-04T18:01:42.961Z,5.57
2023-02-04T18:04:13.820Z,4.75
2023-02-04T18:06:42.291Z,3.88
2023-02-04T18:09:16.991Z,4.72
2023-02-04T18:11:46.396Z,4.45
2023-02-04T18:14:18.170Z,5.20
2023-02-04T18:16:47.351Z,5.03
2023-02-04T18:19:20.216Z,4.97
2023-02-04T18:21:49.255Z,5.50
2023-02-04T18:24:20.977Z,5.38
2023-02-04T18:26:50.965Z,5.10
2023-02-04T18:29:30.982Z,5.28
2023-02-04T18:32:01.282Z,5.53
2023-02-04T18:34:36.418Z,5.90
2023-02-04T18:37:25.212Z,4.72
2023-02-04T18:39:58.791Z,5.93
2023-02-04T18:42:28.435Z,6.22
2023-02-04T18:44:56.988Z,6.07
2023-02-04T18:47:32.643Z,7.75
2023-02-04T18:50:02.518Z,6.97
2023-02-04T18:52:38.466Z,6.90
2023-02-04T18:55:23.652Z,7.05
2023-02-04T18:57:52.052Z,6.90
2023-02-04T19:00:32.198Z,7.43
2023-02-04T19:03:03.228Z,7.50
2023-02-04T19:05:36.598Z,8.88
2023-02-04T19:08:28.298Z,8.25
2023-02-04T19:10:59.474Z,8.27
2023-02-04T19:13:39.567Z,8.35
2023-02-04T19:16:22.529Z,8.68
2023-02-04T19:18:52.182Z,8.80
2023-02-04T19:21:27.249Z,8.75
2023-02-04T19:24:00.548Z,8.88
2023-02-04T19:26:37.249Z,10.88
2023-02-04T19:29:40.472Z,9.43
2023-02-04T19:32:28.541Z,8.93
2023-02-04T19:35:00.904Z,9.63
2023-02-04T19:37:38.282Z,9.55
2023-02-04T19:40:27.625Z,9.85
2023-02-04T19:43:05.030Z,10.18
2023-02-04T19:45:35.858Z,11.05
2023-02-04T19:48:18.639Z,10.90
2023-02-04T19:50:47.819Z,10.85
2023-02-04T19:53:21.609Z,12.20
2023-02-04T19:55:52.079Z,12.32
2023-02-04T19:58:24.876Z,11.77
2023-02-04T20:00:58.214Z,12.32
2023-02-04T20:03:31.444Z,11.95
2023-02-04T20:06:07.615Z,12.68
2023-02-04T20:08:47.842Z,12.18
2023-02-04T20:11:45.198Z,13.20
2023-02-04T20:14:25.247Z,11.95
2023-02-04T20:16:57.538Z,13.23
2023-02-04T20:19:34.525Z,12.68
2023-02-04T20:22:48.731Z,14.10
2023-02-04T20:25:39.108Z,13.02
2023-02-04T20:28:37.070Z,15.13
2023-02-04T20:31:18.886Z,15.73
2023-02-04T20:33:50.613Z,15.27
2023-02-04T20:36:40.984Z,13.95
2023-02-04T20:39:34.665Z,15.32
2023-02-04T20:42:35.230Z,14.38
2023-02-04T20:45:25.054Z,13.65
2023-02-04T20:47:59.668Z,14.32
2023-02-04T20:50:38.404Z,14.50
2023-02-04T20:53:09.763Z,16.58
2023-02-04T20:55:38.181Z,16.08
2023-02-04T20:58:17.121Z,15.02
2023-02-04T21:00:48.738Z,15.88
2023-02-04T21:03:24.851Z,18.15
2023-02-04T21:05:54.299Z,17.08
2023-02-04T21:08:33.529Z,16.75
2023-02-04T21:11:02.199Z,17.85
2023-02-04T21:13:30.558Z,17.25
2023-02-04T21:15:59.617Z,17.92
2023-02-04T21:18:29.788Z,16.67
2023-02-04T21:20:58.380Z,17.58
2023-02-04T21:23:26.875Z,18.02
2023-02-04T21:25:56.775Z,18.95
2023-02-04T21:28:25.200Z,17.90
2023-02-04T21:30:53.605Z,18.58
2023-02-04T21:33:22.138Z,19.90
2023-02-04T21:35:52.024Z,17.42
2023-02-04T21:38:20.434Z,17.08
2023-02-04T21:40:48.895Z,19.88
2023-02-04T21:43:17.344Z,18.00
2023-02-04T21:45:45.684Z,18.20
2023-02-04T21:48:14.876Z,18.42
2023-02-04T21:50:43.208Z,18.45
2023-02-04T21:53:13.059Z,17.92
2023-02-04T21:55:41.700Z,18.00
2023-02-04T21:58:10.098Z,18.98
2023-02-04T22:00:38.571Z,18.23
2023-02-04T22:03:10.326Z,16.63
2023-02-04T22:05:39.036Z,19.48
2023-02-04T22:08:07.367Z,17.10
2023-02-04T22:10:37.650Z,16.35
2023-02-04T22:13:06.234Z,16.40
2023-02-04T22:15:34.911Z,15.98
2023-02-04T22:18:04.110Z,16.85
2023-02-04T22:20:32.664Z,16.98
2023-02-04T22:23:01.153Z,14.48
2023-02-04T22:25:29.496Z,14.07
2023-02-04T22:28:02.786Z,14.10
2023-02-04T22:30:31.348Z,14.05
2023-02-04T22:33:01.033Z,12.40
2023-02-04T22:35:35.295Z,12.48
2023-02-04T22:38:04.861Z,12.73
2023-02-04T22:40:33.231Z,11.50
2023-02-04T22:43:04.791Z,11.10
2023-02-04T22:45:33.531Z,12.13
2023-02-04T22:48:02.155Z,10.95
2023-02-04T22:50:30.497Z,10.90
2023-02-04T22:52:58.912Z,10.90
2023-02-04T22:55:27.411Z,11.48
2023-02-04T22:57:55.764Z,11.23
2023-02-04T23:00:25.770Z,10.07
2023-02-04T23:02:54.216Z,10.13
2023-02-04T23:05:22.670Z,10.32
2023-02-04T23:07:51.556Z,9.98
2023-02-04T23:10:20.009Z,10.38
2023-02-04T23:12:48.403Z,9.38
2023-02-04T23:15:16.929Z,9.95
2023-02-04T23:17:47.144Z,10.25
2023-02-04T23:20:15.665Z,8.88
2023-02-04T23:22:44.050Z,9.30
2023-02-04T23:25:12.655Z,9.23
2023-02-04T23:27:41.053Z,8.45
2023-02-04T23:30:10.661Z,9.63
2023-02-04T23:32:39.018Z,7.78
2023-02-04T23:35:09.074Z,6.90
2023-02-04T23:37:37.470Z,7.47
2023-02-04T23:40:07.022Z,7.38
2023-02-04T23:42:35.408Z,8.10
2023-02-04T23:45:05.158Z,6.72
2023-02-04T23:47:33.596Z,6.97
2023-02-04T23:50:02.920Z,7.10
2023-02-04T23:52:32.624Z,8.57
2023-02-04T23:55:01.217Z,7.95
2023-02-04T23:57:29.630Z,8.57
2023-02-04T23:59:58.108Z,7.50
